Time,TemperatureF,DewpointF,PressureIn,WindDirection,WindDirectionDegrees,WindSpeedMPH,WindSpeedGustMPH,Humidity,HourlyPrecipIn,Conditions,Clouds,dailyrainin,SoftwareType,DateUTC
2013-06-06 00:02:00,55.0,44.0,-100.00,West,273,3.0,11.0,66,0.00,,,0.00,,2013-06-06 06:02:00,
2013-06-06 00:12:00,55.0,44.0,-100.00,West,273,3.0,11.0,66,0.00,,,0.00,,2013-06-06 06:12:00,
2013-06-06 00:32:00,53.0,45.0,-100.00,WNW,302,2.0,4.0,72,0.00,,,-99.99,,2013-06-06 06:32:00,
2013-06-06 00:42:00,53.0,45.0,-100.00,WNW,302,2.0,4.0,72,0.00,,,-99.99,,2013-06-06 06:42:00,
2013-06-06 00:52:00,53.0,45.0,-100.00,WNW,302,2.0,4.0,72,0.00,,,-99.99,,2013-06-06 06:52:00,
2013-06-06 01:02:00,53.0,45.0,-100.00,WNW,302,2.0,4.0,72,0.00,,,-99.99,,2013-06-06 07:02:00,
2013-06-06 01:12:00,53.0,45.0,-100.00,WNW,302,2.0,4.0,72,0.00,,,-99.99,,2013-06-06 07:12:00,
2013-06-06 01:42:00,51.0,47.0,-100.00,NNW,346,1.0,3.0,84,0.00,,,-99.99,,2013-06-06 07:42:00,
2013-06-06 01:52:00,51.0,47.0,-100.00,NNW,346,1.0,3.0,84,0.00,,,-99.99,,2013-06-06 07:52:00,
2013-06-06 02:02:00,51.0,47.0,-100.00,NNW,346,1.0,3.0,84,0.00,,,-99.99,,2013-06-06 08:02:00,
2013-06-06 02:12:00,51.0,47.0,-100.00,NNW,346,1.0,3.0,84,0.00,,,-99.99,,2013-06-06 08:12:00,
2013-06-06 02:32:00,52.0,46.0,-100.00,West,267,2.0,4.0,81,0.00,,,-99.99,,2013-06-06 08:32:00,
2013-06-06 02:42:00,52.0,46.0,-100.00,West,267,2.0,4.0,81,0.00,,,-99.99,,2013-06-06 08:42:00,
2013-06-06 02:52:00,52.0,46.0,-100.00,West,267,2.0,4.0,81,0.00,,,-99.99,,2013-06-06 08:52:00,
2013-06-06 03:02:00,52.0,46.0,-100.00,West,267,2.0,4.0,81,0.00,,,-99.99,,2013-06-06 09:02:00,
2013-06-06 03:12:00,52.0,46.0,-100.00,West,267,2.0,4.0,81,0.00,,,-99.99,,2013-06-06 09:12:00,
2013-06-06 03:43:00,50.0,46.0,-100.00,WSW,252,2.0,4.0,87,0.00,,,-99.99,,2013-06-06 09:43:00,
2013-06-06 03:53:00,50.0,46.0,-100.00,WSW,252,2.0,4.0,87,0.00,,,-99.99,,2013-06-06 09:53:00,
2013-06-06 04:02:00,50.0,46.0,-100.00,WSW,252,2.0,4.0,87,0.00,,,-99.99,,2013-06-06 10:02:00,
2013-06-06 04:12:00,50.0,46.0,-100.00,WSW,252,2.0,4.0,87,0.00,,,-99.99,,2013-06-06 10:12:00,
2013-06-06 04:33:00,49.0,46.0,-100.00,NNW,335,1.0,2.0,90,0.00,,,0.00,,2013-06-06 10:33:00,
2013-06-06 04:42:00,49.0,46.0,-100.00,NNW,335,1.0,2.0,90,0.00,,,0.00,,2013-06-06 10:42:00,
2013-06-06 04:53:00,49.0,46.0,-100.00,NNW,335,1.0,2.0,90,0.00,,,0.00,,2013-06-06 10:53:00,
2013-06-06 05:02:00,49.0,46.0,-100.00,NNW,335,1.0,2.0,90,0.00,,,0.00,,2013-06-06 11:02:00,
2013-06-06 05:12:00,49.0,46.0,-100.00,NNW,335,1.0,2.0,90,0.00,,,0.00,,2013-06-06 11:12:00,
2013-06-06 05:32:00,46.0,43.0,-100.00,SSW,195,4.0,5.0,87,0.01,,,0.00,,2013-06-06 11:32:00,
2013-06-06 05:42:00,46.0,43.0,-100.00,SSW,195,4.0,5.0,87,0.01,,,0.00,,2013-06-06 11:42:00,
2013-06-06 05:52:00,46.0,43.0,-100.00,SSW,195,4.0,5.0,87,0.01,,,0.00,,2013-06-06 11:52:00,
2013-06-06 06:02:00,46.0,43.0,-100.00,SSW,195,4.0,5.0,87,0.01,,,0.00,,2013-06-06 12:02:00,
2013-06-06 06:12:00,46.0,43.0,-100.00,SSW,195,4.0,5.0,87,0.01,,,0.00,,2013-06-06 12:12:00,
2013-06-06 06:42:00,46.0,43.0,-100.00,South,184,3.0,4.0,91,0.00,,,-99.99,,2013-06-06 12:42:00,
2013-06-06 06:53:00,46.0,43.0,-100.00,South,184,3.0,4.0,91,0.00,,,-99.99,,2013-06-06 12:53:00,
2013-06-06 07:03:00,46.0,43.0,-100.00,South,184,3.0,4.0,91,0.00,,,-99.99,,2013-06-06 13:03:00,
2013-06-06 07:12:00,46.0,43.0,-100.00,South,184,3.0,4.0,91,0.00,,,-99.99,,2013-06-06 13:12:00,
2013-06-06 07:42:00,49.0,44.0,-100.00,South,179,5.0,6.0,81,0.00,,,0.00,,2013-06-06 13:42:00,
2013-06-06 07:53:00,49.0,44.0,-100.00,South,179,5.0,6.0,81,0.00,,,0.00,,2013-06-06 13:53:00,
2013-06-06 08:02:00,49.0,44.0,-100.00,South,179,5.0,6.0,81,0.00,,,0.00,,2013-06-06 14:02:00,
2013-06-06 08:12:00,49.0,44.0,-100.00,South,179,5.0,6.0,81,0.00,,,0.00,,2013-06-06 14:12:00,
2013-06-06 08:32:00,55.0,44.0,-100.00,South,186,6.0,8.0,67,0.00,,,0.00,,2013-06-06 14:32:00,
2013-06-06 08:42:00,55.0,44.0,-100.00,South,186,6.0,8.0,67,0.00,,,0.00,,2013-06-06 14:42:00,
2013-06-06 08:53:00,55.0,44.0,-100.00,South,186,6.0,8.0,67,0.00,,,0.00,,2013-06-06 14:53:00,
2013-06-06 09:02:00,55.0,44.0,-100.00,South,186,6.0,8.0,67,0.00,,,0.00,,2013-06-06 15:02:00,
2013-06-06 09:12:00,55.0,44.0,-100.00,South,186,6.0,8.0,67,0.00,,,0.00,,2013-06-06 15:12:00,
2013-06-06 09:43:00,60.0,43.0,-100.00,SSW,195,5.0,7.0,54,0.00,,,0.00,,2013-06-06 15:43:00,
2013-06-06 09:53:00,60.0,43.0,-100.00,SSW,195,5.0,7.0,54,0.00,,,0.00,,2013-06-06 15:53:00,
2013-06-06 10:03:00,60.0,43.0,-100.00,SSW,195,5.0,7.0,54,0.00,,,0.00,,2013-06-06 16:03:00,
2013-06-06 10:12:00,60.0,43.0,-100.00,SSW,195,5.0,7.0,54,0.00,,,0.00,,2013-06-06 16:12:00,
2013-06-06 10:33:00,65.0,42.0,-100.00,South,189,4.0,7.0,44,-99.99,,,0.00,,2013-06-06 16:33:00,
2013-06-06 10:43:00,65.0,42.0,-100.00,South,189,4.0,7.0,44,-99.99,,,0.00,,2013-06-06 16:43:00,
2013-06-06 10:53:00,65.0,42.0,-100.00,South,189,4.0,7.0,44,-99.99,,,0.00,,2013-06-06 16:53:00,
2013-06-06 11:03:00,65.0,42.0,-100.00,South,189,4.0,7.0,44,-99.99,,,0.00,,2013-06-06 17:03:00,
2013-06-06 11:12:00,65.0,42.0,-100.00,South,189,4.0,7.0,44,-99.99,,,0.00,,2013-06-06 17:12:00,
2013-06-06 11:32:00,68.0,40.0,-100.00,NE,55,4.0,9.0,36,0.00,,,-99.99,,2013-06-06 17:32:00,
2013-06-06 11:42:00,68.0,40.0,-100.00,NE,55,4.0,9.0,36,0.00,,,-99.99,,2013-06-06 17:42:00,
2013-06-06 11:53:00,68.0,40.0,-100.00,NE,55,4.0,9.0,36,0.00,,,-99.99,,2013-06-06 17:53:00,
2013-06-06 12:03:00,68.0,40.0,-100.00,NE,55,4.0,9.0,36,0.00,,,-99.99,,2013-06-06 18:03:00,
2013-06-06 12:12:00,68.0,40.0,-100.00,NE,55,4.0,9.0,36,0.00,,,-99.99,,2013-06-06 18:12:00,
2013-06-06 12:33:00,69.0,40.0,-100.00,NNE,30,5.0,10.0,34,0.00,,,0.00,,2013-06-06 18:33:00,
2013-06-06 12:43:00,69.0,40.0,-100.00,NNE,30,5.0,10.0,34,0.00,,,0.00,,2013-06-06 18:43:00,
2013-06-06 12:53:00,69.0,40.0,-100.00,NNE,30,5.0,10.0,34,0.00,,,0.00,,2013-06-06 18:53:00,
2013-06-06 13:02:00,69.0,40.0,-100.00,NNE,30,5.0,10.0,34,0.00,,,0.00,,2013-06-06 19:02:00,
2013-06-06 13:12:00,69.0,40.0,-100.00,NNE,30,5.0,10.0,34,0.00,,,0.00,,2013-06-06 19:12:00,
2013-06-06 13:42:00,72.0,39.0,-100.00,ESE,112,4.0,10.0,30,0.00,,,0.00,,2013-06-06 19:42:00,
2013-06-06 13:53:00,72.0,39.0,-100.00,ESE,112,4.0,10.0,30,0.00,,,0.00,,2013-06-06 19:53:00,
2013-06-06 14:02:00,72.0,39.0,-100.00,ESE,112,4.0,10.0,30,0.00,,,0.00,,2013-06-06 20:02:00,
2013-06-06 14:12:00,72.0,39.0,-100.00,ESE,112,4.0,10.0,30,0.00,,,0.00,,2013-06-06 20:12:00,
2013-06-06 14:33:00,73.0,41.0,-100.00,NE,53,7.0,16.0,32,0.00,,,0.00,,2013-06-06 20:33:00,
2013-06-06 14:42:00,73.0,41.0,-100.00,NE,53,7.0,16.0,32,0.00,,,0.00,,2013-06-06 20:42:00,
2013-06-06 14:53:00,73.0,41.0,-100.00,NE,53,7.0,16.0,32,0.00,,,0.00,,2013-06-06 20:53:00,
2013-06-06 15:03:00,73.0,41.0,-100.00,NE,53,7.0,16.0,32,0.00,,,0.00,,2013-06-06 21:03:00,
2013-06-06 15:12:00,73.0,41.0,-100.00,NE,53,7.0,16.0,32,0.00,,,0.00,,2013-06-06 21:12:00,
2013-06-06 15:33:00,74.0,41.0,-100.00,North,3,5.0,11.0,30,0.00,,,0.00,,2013-06-06 21:33:00,
2013-06-06 15:43:00,74.0,41.0,-100.00,North,3,5.0,11.0,30,0.00,,,0.00,,2013-06-06 21:43:00,
2013-06-06 15:53:00,74.0,41.0,-100.00,North,3,5.0,11.0,30,0.00,,,0.00,,2013-06-06 21:53:00,
2013-06-06 16:02:00,74.0,41.0,-100.00,North,3,5.0,11.0,30,0.00,,,0.00,,2013-06-06 22:02:00,
2013-06-06 16:12:00,74.0,41.0,-100.00,North,3,5.0,11.0,30,0.00,,,0.00,,2013-06-06 22:12:00,
2013-06-06 16:33:00,75.0,41.0,-100.00,NNE,12,6.0,14.0,30,0.00,,,0.00,,2013-06-06 22:33:00,
2013-06-06 16:43:00,75.0,41.0,-100.00,NNE,12,6.0,14.0,30,0.00,,,0.00,,2013-06-06 22:43:00,
2013-06-06 16:53:00,75.0,41.0,-100.00,NNE,12,6.0,14.0,30,0.00,,,0.00,,2013-06-06 22:53:00,
2013-06-06 17:02:00,75.0,41.0,-100.00,NNE,12,6.0,14.0,30,0.00,,,0.00,,2013-06-06 23:02:00,
2013-06-06 17:12:00,75.0,41.0,-100.00,NNE,12,6.0,14.0,30,0.00,,,0.00,,2013-06-06 23:12:00,
2013-06-06 17:33:00,74.0,43.0,-100.00,NNE,17,7.0,10.0,32,0.00,,,0.00,,2013-06-06 23:33:00,
2013-06-06 17:42:00,74.0,43.0,-100.00,NNE,17,7.0,10.0,32,0.00,,,0.00,,2013-06-06 23:42:00,
2013-06-06 17:52:00,74.0,43.0,-100.00,NNE,17,7.0,10.0,32,0.00,,,0.00,,2013-06-06 23:52:00,
2013-06-06 18:02:00,74.0,43.0,-100.00,NNE,17,7.0,10.0,32,0.00,,,0.00,,2013-06-07 00:02:00,
2013-06-06 18:12:00,74.0,43.0,-100.00,NNE,17,7.0,10.0,32,0.00,,,0.00,,2013-06-07 00:12:00,
2013-06-06 19:32:00,75.0,43.0,-100.00,ENE,69,2.0,4.0,32,0.00,,,0.00,,2013-06-07 01:32:00,
2013-06-06 19:42:00,75.0,43.0,-100.00,ENE,69,2.0,4.0,32,0.00,,,0.00,,2013-06-07 01:42:00,
2013-06-06 19:52:00,75.0,43.0,-100.00,ENE,69,2.0,4.0,32,0.00,,,0.00,,2013-06-07 01:52:00,
2013-06-06 20:02:00,75.0,43.0,-100.00,ENE,69,2.0,4.0,32,0.00,,,0.00,,2013-06-07 02:02:00,
2013-06-06 20:12:00,75.0,43.0,-100.00,ENE,69,2.0,4.0,32,0.00,,,0.00,,2013-06-07 02:12:00,
2013-06-06 20:32:00,69.0,51.0,-100.00,WNW,299,5.0,7.0,53,0.00,,,0.00,,2013-06-07 02:32:00,
2013-06-06 20:42:00,69.0,51.0,-100.00,WNW,299,5.0,7.0,53,0.00,,,0.00,,2013-06-07 02:42:00,
2013-06-06 20:52:00,69.0,51.0,-100.00,WNW,299,5.0,7.0,53,0.00,,,0.00,,2013-06-07 02:52:00,
2013-06-06 21:02:00,69.0,51.0,-100.00,WNW,299,5.0,7.0,53,0.00,,,0.00,,2013-06-07 03:02:00,
2013-06-06 21:12:00,69.0,51.0,-100.00,WNW,299,5.0,7.0,53,0.00,,,0.00,,2013-06-07 03:12:00,
2013-06-06 21:33:00,64.0,54.0,-100.00,WNW,282,4.0,5.0,70,0.00,,,0.00,,2013-06-07 03:33:00,
2013-06-06 21:43:00,64.0,54.0,-100.00,WNW,282,4.0,5.0,70,0.00,,,0.00,,2013-06-07 03:43:00,
2013-06-06 21:53:00,64.0,54.0,-100.00,WNW,282,4.0,5.0,70,0.00,,,0.00,,2013-06-07 03:53:00,
2013-06-06 22:03:00,64.0,54.0,-100.00,WNW,282,4.0,5.0,70,0.00,,,0.00,,2013-06-07 04:03:00,
2013-06-06 22:12:00,64.0,54.0,-100.00,WNW,282,4.0,5.0,70,0.00,,,0.00,,2013-06-07 04:12:00,
2013-06-06 22:33:00,59.0,49.0,-100.00,SSE,148,3.0,4.0,68,0.00,,,0.00,,2013-06-07 04:33:00,
2013-06-06 22:42:00,59.0,49.0,-100.00,SSE,148,3.0,4.0,68,0.00,,,0.00,,2013-06-07 04:42:00,
2013-06-06 22:53:00,59.0,49.0,-100.00,SSE,148,3.0,4.0,68,0.00,,,0.00,,2013-06-07 04:53:00,
2013-06-06 23:02:00,59.0,49.0,-100.00,SSE,148,3.0,4.0,68,0.00,,,0.00,,2013-06-07 05:02:00,
2013-06-06 23:12:00,59.0,49.0,-100.00,SSE,148,3.0,4.0,68,0.00,,,0.00,,2013-06-07 05:12:00,